Time;durP1;ratioP1;P1;durP2;ratioP2;P2;SDS_P1;SDS_P2;PMS_P1;PMS_P2;Temp;Humidity;BMP_temperature;BMP_pressure;BME280_temperature;BME280_humidity;BME280_pressure;Samples;Min_cycle;Max_cycle;Signal;HPM_P1;HPM_P2
2024/02/05 00:01:02;;;;;;;0.00;0.00;;;;;;;13.78;55.02;99737.91;4222955;33;33799;-84
2024/02/05 00:03:30;;;;;;;0.10;0.10;;;;;;;13.72;55.32;99738.22;4221664;33;33850;-84
2024/02/05 00:05:58;;;;;;;0.00;0.00;;;;;;;13.37;56.32;99738.44;4223294;33;33297;-83
2024/02/05 00:08:25;;;;;;;0.00;0.00;;;;;;;13.32;56.73;99719.28;4222946;33;33155;-83
2024/02/05 00:10:54;;;;;;;0.00;0.00;;;;;;;13.66;55.83;99727.97;4217900;33;32924;-84
2024/02/05 00:13:24;;;;;;;0.00;0.00;;;;;;;13.61;56.03;99735.34;4226372;33;33551;-83
2024/02/05 00:15:51;;;;;;;0.00;0.00;;;;;;;13.61;56.00;99730.03;4199281;33;33737;-84
2024/02/05 00:18:20;;;;;;;0.00;0.00;;;;;;;13.31;57.10;99738.81;4214173;33;32446;-84
2024/02/05 00:20:48;;;;;;;0.00;0.00;;;;;;;13.82;55.65;99713.75;4212468;33;33437;-86
2024/02/05 00:23:15;;;;;;;0.00;0.00;;;;;;;13.60;56.57;99720.38;4212957;33;33997;-86
2024/02/05 00:25:43;;;;;;;0.00;0.00;;;;;;;13.89;55.64;99708.91;4223340;33;33830;-84
2024/02/05 00:28:11;;;;;;;0.00;0.00;;;;;;;13.52;56.91;99720.81;4210344;33;32587;-85
2024/02/05 00:30:39;;;;;;;0.00;0.00;;;;;;;13.72;56.65;99715.22;4200457;33;34193;-85
2024/02/05 00:33:07;;;;;;;0.00;0.00;;;;;;;13.82;56.41;99723.50;4199428;33;32896;-85
2024/02/05 00:35:34;;;;;;;0.00;0.00;;;;;;;14.04;55.89;99723.09;4205176;33;33215;-85
2024/02/05 00:38:03;;;;;;;0.00;0.00;;;;;;;13.84;56.80;99716.31;4210686;33;33724;-84
2024/02/05 00:40:31;;;;;;;0.00;0.00;;;;;;;13.56;57.96;99722.34;4201089;33;32882;-84
2024/02/05 00:42:58;;;;;;;0.00;0.00;;;;;;;13.56;58.27;99720.53;4221567;33;33426;-84
2024/02/05 00:45:26;;;;;;;0.65;0.65;;;;;;;13.68;58.13;99726.13;4222698;33;33384;-84
2024/02/05 00:47:54;;;;;;;0.00;0.00;;;;;;;13.40;58.99;99743.59;4202873;33;34034;-83
2024/02/05 00:50:22;;;;;;;0.00;0.00;;;;;;;13.77;58.17;99730.88;4187279;33;33305;-83
2024/02/05 00:52:49;;;;;;;0.10;0.00;;;;;;;13.50;58.99;99728.84;4199619;33;34600;-82
2024/02/05 00:55:17;;;;;;;0.00;0.00;;;;;;;13.55;59.03;99724.16;4212972;33;33382;-84
2024/02/05 00:57:46;;;;;;;0.00;0.00;;;;;;;13.68;59.23;99732.28;4211950;33;33869;-84
2024/02/05 01:00:14;;;;;;;0.00;0.00;;;;;;;13.72;59.02;99733.81;4213714;33;31562;-85
2024/02/05 01:02:42;;;;;;;0.00;0.00;;;;;;;13.16;60.95;99734.31;4214157;33;33708;-85
2024/02/05 01:05:10;;;;;;;0.10;0.03;;;;;;;13.50;60.31;99730.66;4211792;33;33112;-85
2024/02/05 01:07:38;;;;;;;0.00;0.00;;;;;;;13.63;59.79;99730.81;4213670;33;34284;-84
2024/02/05 01:10:07;;;;;;;0.00;0.00;;;;;;;13.87;59.07;99733.87;4201626;33;33448;-83
2024/02/05 01:12:34;;;;;;;0.00;0.00;;;;;;;13.84;59.06;99732.22;4224320;33;33698;-85
2024/02/05 01:15:04;;;;;;;0.00;0.00;;;;;;;13.77;59.59;99722.94;4198182;33;33023;-85
2024/02/05 01:17:32;;;;;;;0.00;0.00;;;;;;;13.42;60.96;99731.09;4216725;33;33615;-85
2024/02/05 01:20:00;;;;;;;0.00;0.00;;;;;;;13.53;60.64;99723.41;4217287;33;32604;-85
2024/02/05 01:22:32;;;;;;;0.00;0.00;;;;;;;13.41;61.19;99715.25;4211706;33;33936;-84
2024/02/05 01:25:00;;;;;;;0.00;0.00;;;;;;;13.47;61.04;99729.03;4210721;33;32308;-83
2024/02/05 01:27:27;;;;;;;0.10;0.10;;;;;;;13.86;60.21;99729.47;4224855;33;34462;-83
2024/02/05 01:29:55;;;;;;;0.17;0.17;;;;;;;13.27;62.08;99727.50;4211208;33;32092;-83
2024/02/05 01:32:23;;;;;;;0.77;0.45;;;;;;;12.75;63.88;99713.56;4201275;33;31455;-83
2024/02/05 01:34:50;;;;;;;0.00;0.00;;;;;;;13.56;61.33;99715.25;4212608;33;32713;-83
2024/02/05 01:37:18;;;;;;;0.00;0.00;;;;;;;13.39;61.89;99709.19;4198671;33;33308;-83
2024/02/05 01:39:46;;;;;;;0.00;0.00;;;;;;;13.53;61.14;99718.09;4227714;33;33965;-83
2024/02/05 01:42:14;;;;;;;0.32;0.20;;;;;;;13.49;61.20;99705.09;4199224;33;33141;-85
2024/02/05 01:44:42;;;;;;;0.00;0.00;;;;;;;13.44;61.77;99701.84;4200040;33;34410;-85
2024/02/05 01:47:10;;;;;;;1.45;0.52;;;;;;;13.56;61.28;99706.44;4211561;33;34119;-84
2024/02/05 01:49:38;;;;;;;0.15;0.15;;;;;;;13.18;62.66;99690.00;4201363;33;33418;-83
2024/02/05 01:52:09;;;;;;;0.00;0.00;;;;;;;13.60;61.15;99697.34;4222911;33;34576;-84
2024/02/05 01:54:37;;;;;;;0.00;0.00;;;;;;;13.37;61.92;99693.38;4201120;33;33811;-84
2024/02/05 01:57:09;;;;;;;0.00;0.00;;;;;;;13.40;62.03;99687.03;4211731;33;36181;-83
2024/02/05 01:59:38;;;;;;;0.00;0.00;;;;;;;13.55;61.10;99689.66;4221420;33;33271;-83
2024/02/05 02:02:06;;;;;;;0.00;0.00;;;;;;;13.64;61.18;99703.34;4213991;33;33044;-84
2024/02/05 02:04:35;;;;;;;0.10;0.10;;;;;;;13.42;61.35;99696.59;4199499;33;32611;-84
2024/02/05 02:07:06;;;;;;;0.52;0.52;;;;;;;13.20;62.64;99688.16;4211813;33;34253;-83
2024/02/05 02:09:34;;;;;;;1.08;1.00;;;;;;;13.45;61.77;99699.09;4222336;33;33467;-83
2024/02/05 02:12:03;;;;;;;0.10;0.10;;;;;;;13.65;61.18;99694.44;4188469;33;32617;-83
2024/02/05 02:14:30;;;;;;;1.67;0.05;;;;;;;13.28;62.10;99696.53;4200573;33;32622;-83
2024/02/05 02:16:58;;;;;;;0.00;0.00;;;;;;;13.47;61.23;99712.25;4224105;33;33680;-82
2024/02/05 02:19:42;;;;;;;0.00;0.00;;;;;;;13.52;61.35;99704.88;4210904;33;33391;-82
2024/02/05 02:22:16;;;;;;;0.00;0.00;;;;;;;13.24;62.05;99716.19;4210982;33;34398;-82
2024/02/05 02:24:43;;;;;;;0.00;0.00;;;;;;;13.41;61.64;99708.16;4211544;33;34042;-82
2024/02/05 02:27:11;;;;;;;0.03;0.00;;;;;;;13.56;61.25;99709.94;4210894;33;34490;-83
2024/02/05 02:29:39;;;;;;;0.13;0.13;;;;;;;13.67;60.79;99711.09;4202126;33;33078;-83
2024/02/05 02:32:22;;;;;;;0.10;0.10;;;;;;;13.35;61.73;99703.22;4202553;33;33632;-83
2024/02/05 02:34:52;;;;;;;0.00;0.00;;;;;;;13.35;61.78;99713.81;4223875;33;33669;-84
2024/02/05 02:37:22;;;;;;;0.00;0.00;;;;;;;13.54;61.10;99713.63;4201406;33;31737;-83
2024/02/05 02:40:05;;;;;;;0.00;0.00;;;;;;;13.52;61.31;99710.19;4223047;33;33435;-83
2024/02/05 02:42:34;;;;;;;0.00;0.00;;;;;;;13.53;61.24;99710.13;4199352;33;33454;-83
2024/02/05 02:45:02;;;;;;;0.00;0.00;;;;;;;13.43;61.33;99716.03;4211093;33;33893;-83
2024/02/05 02:47:30;;;;;;;0.00;0.00;;;;;;;13.74;60.25;99710.69;4199702;33;33706;-86
2024/02/05 02:49:58;;;;;;;0.32;0.32;;;;;;;13.75;60.36;99716.84;4212323;33;31722;-86
2024/02/05 02:52:26;;;;;;;0.00;0.00;;;;;;;13.77;59.78;99704.34;4223353;33;32794;-86
2024/02/05 02:54:54;;;;;;;0.00;0.00;;;;;;;13.54;60.67;99713.63;4204665;33;33509;-86
2024/02/05 02:57:22;;;;;;;0.03;0.03;;;;;;;13.46;61.28;99705.25;4200663;33;34157;-85
2024/02/05 02:59:51;;;;;;;0.00;0.00;;;;;;;13.61;60.71;99706.16;4222427;33;33158;-85
2024/02/05 03:02:20;;;;;;;0.00;0.00;;;;;;;13.28;62.04;99699.19;4200176;33;33518;-85
2024/02/05 03:04:47;;;;;;;0.10;0.10;;;;;;;13.49;61.36;99695.31;4212151;33;34355;-86
2024/02/05 03:07:15;;;;;;;0.03;0.03;;;;;;;13.90;59.69;99691.19;4225923;33;33295;-86
2024/02/05 03:09:45;;;;;;;0.00;0.00;;;;;;;13.57;61.18;99690.41;4201143;33;33099;-86
2024/02/05 03:12:13;;;;;;;0.00;0.00;;;;;;;14.05;59.60;99672.56;4189865;33;33902;-85
2024/02/05 03:14:41;;;;;;;0.30;0.30;;;;;;;14.18;59.14;99679.78;4206038;33;34598;-85
2024/02/05 03:17:08;;;;;;;0.00;0.00;;;;;;;14.01;59.40;99675.50;4213640;33;33546;-85
2024/02/05 03:19:36;;;;;;;1.87;0.43;;;;;;;13.92;59.69;99660.97;4211892;33;33448;-85
2024/02/05 03:22:04;;;;;;;0.00;0.00;;;;;;;13.92;59.85;99663.63;4223563;33;34341;-86
2024/02/05 03:24:32;;;;;;;0.00;0.00;;;;;;;13.85;59.64;99670.22;4213294;33;33519;-86
2024/02/05 03:27:00;;;;;;;0.00;0.00;;;;;;;14.07;58.87;99677.78;4214399;33;32868;-87
2024/02/05 03:29:28;;;;;;;0.05;0.05;;;;;;;13.87;59.33;99673.66;4213253;33;32703;-84
2024/02/05 03:31:55;;;;;;;0.00;0.00;;;;;;;13.95;59.09;99671.38;4200033;33;34623;-84
2024/02/05 03:34:23;;;;;;;0.00;0.00;;;;;;;14.05;58.80;99672.56;4201039;33;32599;-84
2024/02/05 03:36:51;;;;;;;0.00;0.00;;;;;;;14.08;58.24;99667.06;4213768;33;33521;-85
2024/02/05 03:39:19;;;;;;;0.00;0.00;;;;;;;13.73;59.64;99665.66;4225046;33;33033;-84
2024/02/05 03:41:47;;;;;;;0.00;0.00;;;;;;;13.89;59.08;99661.16;4196761;33;33784;-84
2024/02/05 03:44:14;;;;;;;0.00;0.00;;;;;;;13.67;59.63;99660.69;4211970;33;34620;-84
2024/02/05 03:46:42;;;;;;;0.00;0.00;;;;;;;13.40;61.05;99661.38;4212188;33;32521;-84
2024/02/05 03:49:10;;;;;;;0.10;0.00;;;;;;;13.85;59.39;99656.97;4211013;33;32260;-84
2024/02/05 03:51:38;;;;;;;0.00;0.00;;;;;;;14.05;58.66;99664.59;4212140;33;34823;-84
2024/02/05 03:54:07;;;;;;;0.00;0.00;;;;;;;14.20;57.98;99670.78;4202820;33;33496;-85
2024/02/05 03:56:35;;;;;;;0.17;0.17;;;;;;;14.03;58.64;99670.94;4229106;33;34082;-85
2024/02/05 03:59:03;;;;;;;0.25;0.20;;;;;;;14.07;58.58;99675.97;4214283;33;34304;-85
2024/02/05 04:01:31;;;;;;;0.17;0.17;;;;;;;13.78;59.42;99685.69;4203533;33;32018;-84
2024/02/05 04:03:59;;;;;;;0.00;0.00;;;;;;;13.69;59.61;99677.41;4212034;33;34927;-85
2024/02/05 04:06:27;;;;;;;0.30;0.10;;;;;;;13.86;59.41;99673.75;4213242;33;33548;-85
2024/02/05 04:08:55;;;;;;;0.00;0.00;;;;;;;13.52;60.22;99683.66;4213173;33;33456;-85
2024/02/05 04:11:23;;;;;;;1.35;0.70;;;;;;;13.65;59.97;99684.69;4211165;33;33986;-84
2024/02/05 04:13:50;;;;;;;0.00;0.00;;;;;;;13.97;58.99;99679.28;4201546;33;32593;-85
2024/02/05 04:16:18;;;;;;;0.10;0.10;;;;;;;13.69;59.61;99678.25;4213728;33;34428;-85
2024/02/05 04:18:46;;;;;;;0.08;0.08;;;;;;;13.47;60.51;99670.66;4214541;33;33231;-84
2024/02/05 04:21:14;;;;;;;0.00;0.00;;;;;;;13.61;60.11;99676.97;4225751;33;33616;-84
2024/02/05 04:23:42;;;;;;;0.00;0.00;;;;;;;13.52;60.29;99673.91;4205812;33;33545;-85
2024/02/05 04:26:14;;;;;;;0.00;0.00;;;;;;;13.42;60.75;99664.78;4213733;33;33844;-85
2024/02/05 04:28:42;;;;;;;0.20;0.20;;;;;;;13.48;60.54;99660.91;4218019;33;32713;-85
2024/02/05 04:31:11;;;;;;;0.00;0.00;;;;;;;13.54;59.96;99665.87;4202332;33;33568;-85
2024/02/05 04:33:39;;;;;;;0.00;0.00;;;;;;;13.65;59.53;99652.00;4223802;33;33785;-85
2024/02/05 04:36:18;;;;;;;0.10;0.10;;;;;;;13.38;60.10;99649.97;4211242;33;33979;-84
2024/02/05 04:38:46;;;;;;;0.22;0.22;;;;;;;13.65;59.20;99659.94;4201601;33;34263;-85
2024/02/05 04:41:14;;;;;;;0.00;0.00;;;;;;;13.76;58.41;99641.59;4194203;33;33424;-84
2024/02/05 04:43:42;;;;;;;1.70;0.65;;;;;;;13.47;58.81;99648.59;4211821;33;34675;-84
2024/02/05 04:46:10;;;;;;;0.00;0.00;;;;;;;13.44;58.72;99649.66;4200973;33;33927;-84
2024/02/05 04:48:38;;;;;;;0.13;0.13;;;;;;;13.27;59.23;99653.25;4221024;33;33140;-84
2024/02/05 04:51:13;;;;;;;0.32;0.32;;;;;;;13.07;59.76;99649.06;4212274;33;34150;-84
2024/02/05 04:53:41;;;;;;;0.05;0.03;;;;;;;12.97;59.95;99639.91;4224731;33;35257;-83
2024/02/05 04:56:08;;;;;;;0.68;0.17;;;;;;;13.11;59.11;99640.94;4222236;33;31923;-83
2024/02/05 04:58:36;;;;;;;0.00;0.00;;;;;;;13.22;58.79;99643.84;4200677;33;33557;-82
2024/02/05 05:01:04;;;;;;;0.68;0.10;;;;;;;13.23;58.71;99642.91;4210776;33;33295;-82
2024/02/05 05:03:36;;;;;;;0.68;0.52;;;;;;;12.91;59.46;99642.87;4201825;33;33938;-83
2024/02/05 05:06:05;;;;;;;0.00;0.00;;;;;;;13.32;58.25;99645.03;4203852;33;33960;-83
2024/02/05 05:08:33;;;;;;;0.85;0.85;;;;;;;13.27;58.21;99649.75;4214088;33;32000;-83
2024/02/05 05:11:01;;;;;;;0.47;0.47;;;;;;;12.92;59.32;99649.91;4212441;33;34455;-83
2024/02/05 05:13:29;;;;;;;1.65;0.52;;;;;;;13.17;58.64;99651.19;4215155;33;33459;-83
2024/02/05 05:15:56;;;;;;;0.90;0.65;;;;;;;13.21;58.19;99648.28;4235919;33;33736;-83
2024/02/05 05:18:24;;;;;;;0.00;0.00;;;;;;;13.11;58.67;99646.25;4194235;33;32202;-83
2024/02/05 05:20:52;;;;;;;0.22;0.22;;;;;;;13.33;58.25;99650.25;4211990;33;33256;-83
2024/02/05 05:23:20;;;;;;;0.05;0.05;;;;;;;12.95;59.24;99647.09;4224301;33;33381;-83
2024/02/05 05:25:47;;;;;;;0.13;0.13;;;;;;;13.23;58.49;99645.56;4222329;33;33594;-83
2024/02/05 05:28:15;;;;;;;0.17;0.17;;;;;;;13.39;57.64;99651.72;4197277;33;33369;-85
2024/02/05 05:30:44;;;;;;;0.57;0.43;;;;;;;13.04;58.69;99645.72;4203933;33;34360;-83
2024/02/05 05:33:12;;;;;;;0.20;0.17;;;;;;;12.85;59.03;99653.00;4217962;33;33664;-83
2024/02/05 05:35:40;;;;;;;0.00;0.00;;;;;;;13.00;58.78;99647.69;4235726;33;33008;-84
2024/02/05 05:38:08;;;;;;;0.10;0.10;;;;;;;13.39;57.63;99651.72;4209944;33;34049;-84
2024/02/05 05:40:36;;;;;;;0.00;0.00;;;;;;;13.22;57.92;99657.13;4223731;33;33518;-84
2024/02/05 05:43:03;;;;;;;0.28;0.28;;;;;;;12.97;58.92;99669.06;4221599;33;34244;-84
2024/02/05 05:45:31;;;;;;;0.00;0.00;;;;;;;12.82;58.99;99667.28;4203251;33;33975;-84
2024/02/05 05:47:59;;;;;;;0.00;0.00;;;;;;;12.97;58.66;99676.16;4210543;33;33226;-84
2024/02/05 05:50:27;;;;;;;0.10;0.10;;;;;;;13.10;58.27;99673.66;4214114;33;32673;-84
2024/02/05 05:52:55;;;;;;;0.10;0.08;;;;;;;13.42;57.28;99686.00;4211479;33;32638;-85
2024/02/05 05:55:22;;;;;;;4.05;0.30;;;;;;;13.16;58.10;99676.84;4197901;33;32577;-84
2024/02/05 05:57:51;;;;;;;6.37;0.43;;;;;;;13.32;57.41;99676.84;4212929;33;32998;-84
2024/02/05 06:00:21;;;;;;;0.13;0.10;;;;;;;13.23;57.29;99685.34;4197643;33;33911;-84
2024/02/05 06:02:50;;;;;;;0.52;0.37;;;;;;;13.05;58.00;99677.47;4201216;33;34113;-84
2024/02/05 06:05:17;;;;;;;0.35;0.35;;;;;;;13.12;57.67;99685.06;4215212;33;32947;-84
2024/02/05 06:07:45;;;;;;;0.00;0.00;;;;;;;13.20;57.42;99689.00;4213427;33;33611;-84
2024/02/05 06:10:13;;;;;;;0.30;0.30;;;;;;;13.14;57.51;99680.50;4213559;33;33594;-85
2024/02/05 06:12:43;;;;;;;0.00;0.00;;;;;;;13.43;56.76;99679.75;4220395;33;33944;-84
2024/02/05 06:15:14;;;;;;;0.32;0.32;;;;;;;13.51;56.54;99688.13;4198821;33;33401;-84
2024/02/05 06:17:42;;;;;;;0.00;0.00;;;;;;;13.24;57.05;99685.22;4192476;33;33757;-85
2024/02/05 06:20:11;;;;;;;0.00;0.00;;;;;;;13.26;57.19;99688.69;4213162;33;34611;-84
2024/02/05 06:22:44;;;;;;;0.10;0.10;;;;;;;13.22;57.17;99687.13;4214464;33;33772;-84
2024/02/05 06:25:12;;;;;;;0.47;0.45;;;;;;;13.44;56.38;99702.69;4200916;33;33564;-87
2024/02/05 06:27:41;;;;;;;0.00;0.00;;;;;;;13.43;56.28;99703.63;4222505;33;32513;-85
2024/02/05 06:30:09;;;;;;;0.10;0.10;;;;;;;13.32;56.64;99706.03;4222840;33;34127;-84
2024/02/05 06:32:37;;;;;;;0.00;0.00;;;;;;;13.12;56.49;99700.97;4199750;33;33160;-84
2024/02/05 06:35:05;;;;;;;0.00;0.00;;;;;;;13.13;56.79;99705.31;4201525;33;33828;-84
2024/02/05 06:37:34;;;;;;;0.00;0.00;;;;;;;13.35;55.79;99710.31;4215140;33;32902;-84
2024/02/05 06:40:02;;;;;;;0.00;0.00;;;;;;;13.41;55.54;99708.16;4209820;33;33335;-84
2024/02/05 06:42:30;;;;;;;0.95;0.85;;;;;;;13.57;54.84;99719.59;4199565;33;31397;-84
2024/02/05 06:44:58;;;;;;;0.10;0.10;;;;;;;13.36;55.29;99722.62;4213430;33;33888;-84
2024/02/05 06:47:26;;;;;;;0.85;0.82;;;;;;;13.71;54.58;99725.91;4225802;33;33385;-83
2024/02/05 06:49:56;;;;;;;0.22;0.13;;;;;;;13.79;54.16;99715.72;4222936;33;33516;-84
2024/02/05 06:52:40;;;;;;;0.00;0.00;;;;;;;13.60;54.32;99707.97;4225759;33;32525;-84
2024/02/05 06:55:08;;;;;;;0.47;0.47;;;;;;;13.38;55.36;99697.72;4200270;33;34158;-84
2024/02/05 06:57:35;;;;;;;0.00;0.00;;;;;;;13.48;54.72;99709.53;4214500;33;33333;-84
2024/02/05 07:00:10;;;;;;;0.00;0.00;;;;;;;13.48;54.50;99716.63;4224424;33;33608;-84
2024/02/05 07:02:39;;;;;;;0.00;0.00;;;;;;;13.37;54.87;99709.28;4222444;33;33251;-84
2024/02/05 07:05:10;;;;;;;0.00;0.00;;;;;;;13.77;53.84;99704.34;4213754;33;33534;-84
2024/02/05 07:07:38;;;;;;;0.35;0.35;;;;;;;13.79;53.40;99710.41;4209554;33;32679;-85
2024/02/05 07:10:06;;;;;;;0.00;0.00;;;;;;;13.96;53.10;99718.25;4212552;33;34226;-83
2024/02/05 07:12:34;;;;;;;0.00;0.00;;;;;;;13.51;54.48;99725.25;4211809;33;34290;-83
2024/02/05 07:15:06;;;;;;;0.00;0.00;;;;;;;13.78;53.49;99721.97;4202651;33;33387;-83
2024/02/05 07:17:35;;;;;;;0.00;0.00;;;;;;;13.45;54.37;99728.28;4200743;33;33169;-80
2024/02/05 07:20:03;;;;;;;0.20;0.20;;;;;;;13.42;54.26;99733.72;4222153;33;33479;-82
2024/02/05 07:22:31;;;;;;;0.00;0.00;;;;;;;13.42;54.41;99731.09;4212243;33;32044;-82
2024/02/05 07:24:59;;;;;;;0.00;0.00;;;;;;;13.68;53.70;99726.13;4196964;33;33262;-82
2024/02/05 07:27:27;;;;;;;0.30;0.10;;;;;;;13.88;53.05;99744.38;4189386;33;31938;-82
2024/02/05 07:29:55;;;;;;;0.00;0.00;;;;;;;13.74;53.59;99736.34;4200694;33;33947;-82
2024/02/05 07:32:23;;;;;;;0.20;0.20;;;;;;;13.75;53.55;99738.06;4210372;33;33519;-82
2024/02/05 07:34:52;;;;;;;0.00;0.00;;;;;;;13.27;54.60;99742.56;4199311;33;33498;-82
2024/02/05 07:37:19;;;;;;;0.10;0.10;;;;;;;13.23;55.06;99754.28;4225231;33;33061;-82
2024/02/05 07:39:48;;;;;;;0.03;0.03;;;;;;;13.40;54.56;99756.00;4212070;33;34255;-82
2024/02/05 07:42:15;;;;;;;0.00;0.00;;;;;;;13.76;53.75;99753.88;4214316;33;31072;-82
2024/02/05 07:44:43;;;;;;;0.00;0.00;;;;;;;13.66;54.18;99752.72;4202623;33;34135;-82
2024/02/05 07:47:11;;;;;;;0.90;0.75;;;;;;;13.78;53.58;99753.81;4217601;33;32428;-82
2024/02/05 07:49:40;;;;;;;0.40;0.10;;;;;;;14.07;52.78;99742.34;4202368;33;32623;-82
2024/02/05 07:52:08;;;;;;;0.00;0.00;;;;;;;13.54;54.10;99746.31;4227879;33;34045;-81
2024/02/05 07:54:39;;;;;;;0.00;0.00;;;;;;;14.29;52.58;99762.31;4225399;33;32775;-82
2024/02/05 07:57:07;;;;;;;0.13;0.13;;;;;;;14.08;52.61;99762.63;4201440;33;33568;-82
2024/02/05 07:59:35;;;;;;;0.00;0.00;;;;;;;13.77;53.63;99752.13;4204129;33;34500;-82
2024/02/05 08:02:03;;;;;;;0.00;0.00;;;;;;;13.93;53.22;99771.50;4222872;33;34896;-81
2024/02/05 08:04:31;;;;;;;7.37;1.10;;;;;;;14.17;52.55;99774.53;4225477;33;34969;-82
2024/02/05 08:07:01;;;;;;;0.00;0.00;;;;;;;14.43;52.48;99773.00;4192883;33;32419;-82
2024/02/05 08:09:29;;;;;;;0.17;0.17;;;;;;;14.27;52.23;99774.84;4211560;33;32668;-82
2024/02/05 08:12:03;;;;;;;0.00;0.00;;;;;;;14.32;52.41;99775.41;4223777;33;33353;-82
2024/02/05 08:14:31;;;;;;;0.00;0.00;;;;;;;14.63;51.66;99778.94;4210735;33;34456;-82
2024/02/05 08:16:58;;;;;;;0.00;0.00;;;;;;;14.42;51.64;99787.19;4212987;33;32572;-82
2024/02/05 08:19:26;;;;;;;0.00;0.00;;;;;;;14.62;51.50;99783.38;4224189;33;32956;-83
2024/02/05 08:21:54;;;;;;;0.10;0.10;;;;;;;14.57;51.41;99789.00;4212258;33;34471;-82
2024/02/05 08:24:22;;;;;;;0.43;0.43;;;;;;;14.86;50.79;99775.72;4202102;33;34125;-82
2024/02/05 08:26:50;;;;;;;0.65;0.45;;;;;;;14.58;51.03;99781.88;4203284;33;33433;-82
2024/02/05 08:29:21;;;;;;;0.00;0.00;;;;;;;14.51;51.23;99797.31;4201968;33;33245;-82
2024/02/05 08:31:51;;;;;;;0.03;0.00;;;;;;;14.76;50.11;99795.81;4199135;33;33139;-82
2024/02/05 08:34:20;;;;;;;0.00;0.00;;;;;;;14.24;51.55;99788.28;4202002;33;33337;-82
2024/02/05 08:36:48;;;;;;;1.90;1.08;;;;;;;14.74;50.31;99793.28;4218253;33;32546;-82
2024/02/05 08:39:15;;;;;;;4.47;0.90;;;;;;;14.38;51.27;99801.59;4213055;33;32822;-82
2024/02/05 08:41:43;;;;;;;0.00;0.00;;;;;;;14.37;51.19;99810.53;4212877;33;33323;-82
2024/02/05 08:44:11;;;;;;;0.00;0.00;;;;;;;14.46;50.54;99809.97;4200156;33;34584;-82
2024/02/05 08:46:39;;;;;;;0.03;0.00;;;;;;;14.27;51.16;99809.38;4193535;33;32254;-82
2024/02/05 08:49:07;;;;;;;0.20;0.20;;;;;;;14.24;51.12;99804.22;4213137;33;33285;-82
2024/02/05 08:51:35;;;;;;;0.30;0.30;;;;;;;14.60;50.07;99810.03;4219228;33;33216;-82
2024/02/05 08:54:02;;;;;;;0.00;0.00;;;;;;;14.21;50.60;99817.69;4215218;33;34040;-82
2024/02/05 08:56:30;;;;;;;0.00;0.00;;;;;;;14.23;50.95;99827.28;4201949;33;31978;-82
2024/02/05 08:58:58;;;;;;;0.00;0.00;;;;;;;14.24;50.85;99810.41;4190607;33;33180;-82
2024/02/05 09:01:25;;;;;;;0.00;0.00;;;;;;;14.17;51.27;99834.75;4228299;33;35147;-82
2024/02/05 09:03:53;;;;;;;0.00;0.00;;;;;;;14.59;49.70;99820.78;4204015;33;33564;-82
2024/02/05 09:06:21;;;;;;;0.00;0.00;;;;;;;14.49;50.15;99838.22;4212613;33;31719;-82
2024/02/05 09:08:49;;;;;;;0.30;0.30;;;;;;;14.54;49.34;99834.34;4210730;33;32459;-82
2024/02/05 09:11:17;;;;;;;0.10;0.10;;;;;;;14.74;49.02;99834.94;4223167;33;32583;-82
2024/02/05 09:13:45;;;;;;;7.05;0.20;;;;;;;14.58;49.11;99819.94;4200540;33;32371;-82
2024/02/05 09:16:12;;;;;;;0.00;0.00;;;;;;;14.53;49.71;99837.94;4224018;33;33880;-82
2024/02/05 09:18:40;;;;;;;0.03;0.03;;;;;;;14.67;48.97;99844.22;4212054;33;32617;-82
2024/02/05 09:21:08;;;;;;;0.00;0.00;;;;;;;14.71;48.88;99857.22;4201848;33;34377;-82
2024/02/05 09:23:37;;;;;;;0.00;0.00;;;;;;;14.72;48.65;99840.37;4229710;33;32905;-82
2024/02/05 09:26:05;;;;;;;0.00;0.00;;;;;;;14.37;49.61;99853.03;4224582;33;33712;-81
2024/02/05 09:28:33;;;;;;;23.67;0.45;;;;;;;14.56;48.89;99847.53;4213814;33;34080;-82
2024/02/05 09:31:01;;;;;;;0.10;0.10;;;;;;;14.30;49.49;99843.72;4212050;33;33666;-81
2024/02/05 09:33:39;;;;;;;0.00;0.00;;;;;;;14.42;48.95;99827.06;4203565;33;35404;-81
2024/02/05 09:36:07;;;;;;;0.00;0.00;;;;;;;14.74;48.64;99833.13;4201574;33;32355;-82
2024/02/05 09:38:35;;;;;;;0.00;0.00;;;;;;;15.43;47.09;99822.69;4213386;33;33443;-82
2024/02/05 09:41:04;;;;;;;0.00;0.00;;;;;;;15.35;46.75;99820.53;4222657;33;34134;-81
2024/02/05 09:43:32;;;;;;;0.00;0.00;;;;;;;15.64;46.43;99810.72;4213417;33;33877;-81
2024/02/05 09:46:12;;;;;;;0.00;0.00;;;;;;;15.40;46.33;99834.41;4202067;33;32239;-81
2024/02/05 09:48:41;;;;;;;0.20;0.20;;;;;;;15.56;45.77;99835.13;4212423;33;35265;-82
2024/02/05 09:51:11;;;;;;;0.10;0.10;;;;;;;15.84;45.97;99825.41;4217770;33;32318;-82
2024/02/05 09:53:40;;;;;;;0.08;0.08;;;;;;;16.01;44.96;99833.16;4201256;33;33897;-82
2024/02/05 09:56:09;;;;;;;2.53;0.43;;;;;;;15.97;43.93;99833.44;4224295;33;32863;-81
2024/02/05 09:58:36;;;;;;;0.00;0.00;;;;;;;15.81;44.13;99831.78;4198682;33;33415;-81
2024/02/05 10:01:05;;;;;;;0.00;0.00;;;;;;;15.94;44.14;99834.50;4212118;33;31748;-81
2024/02/05 10:03:33;;;;;;;0.00;0.00;;;;;;;15.99;44.15;99834.19;4212471;33;34650;-82
2024/02/05 10:06:03;;;;;;;0.00;0.00;;;;;;;15.99;43.61;99837.72;4210698;33;32246;-82
2024/02/05 10:08:32;;;;;;;0.00;0.00;;;;;;;15.81;44.24;99844.25;4223209;33;33548;-82
2024/02/05 10:11:02;;;;;;;0.05;0.00;;;;;;;15.99;44.24;99831.53;4200660;33;34463;-82
2024/02/05 10:13:30;;;;;;;0.00;0.00;;;;;;;16.40;43.22;99836.78;4216563;33;34242;-82
2024/02/05 10:15:58;;;;;;;0.10;0.10;;;;;;;16.65;42.79;99839.47;4210948;33;32674;-81
2024/02/05 10:18:26;;;;;;;0.00;0.00;;;;;;;16.38;43.26;99841.37;4212044;33;33642;-81
2024/02/05 10:21:05;;;;;;;0.00;0.00;;;;;;;16.71;42.62;99824.03;4225426;33;34048;-81
2024/02/05 10:23:33;;;;;;;0.10;0.10;;;;;;;16.29;43.11;99839.31;4212416;33;33543;-82
2024/02/05 10:26:08;;;;;;;0.32;0.32;;;;;;;16.44;42.84;99851.63;4214216;33;32693;-81
2024/02/05 10:28:38;;;;;;;0.00;0.00;;;;;;;16.17;43.23;99850.78;4213413;33;33549;-81
2024/02/05 10:31:13;;;;;;;0.20;0.20;;;;;;;15.85;43.89;99851.91;4210051;33;34704;-81
2024/02/05 10:33:42;;;;;;;0.00;0.00;;;;;;;16.23;43.48;99848.56;4217594;33;33127;-82
2024/02/05 10:36:11;;;;;;;0.25;0.25;;;;;;;16.25;43.37;99844.00;4213050;33;33438;-82
2024/02/05 10:38:39;;;;;;;0.00;0.00;;;;;;;16.40;42.88;99831.44;4211849;33;33194;-82
2024/02/05 10:41:10;;;;;;;0.00;0.00;;;;;;;16.07;43.75;99843.41;4203475;33;33368;-81
2024/02/05 10:43:43;;;;;;;0.00;0.00;;;;;;;15.98;43.84;99840.47;4198840;33;32230;-82
2024/02/05 10:46:11;;;;;;;0.00;0.00;;;;;;;15.95;44.24;99836.22;4202114;33;32758;-82
2024/02/05 10:48:41;;;;;;;0.00;0.00;;;;;;;15.99;43.63;99840.37;4203615;33;32110;-82
2024/02/05 10:51:09;;;;;;;0.10;0.10;;;;;;;15.90;44.41;99845.44;4196417;33;33450;-82
2024/02/05 10:53:39;;;;;;;1.20;0.57;;;;;;;15.87;44.23;99846.50;4199812;33;32540;-82
2024/02/05 10:56:08;;;;;;;0.00;0.00;;;;;;;15.51;44.52;99863.84;4211601;33;31932;-82
2024/02/05 10:58:36;;;;;;;0.00;0.00;;;;;;;15.44;44.83;99838.56;4200276;33;33685;-82
2024/02/05 11:01:04;;;;;;;0.00;0.00;;;;;;;15.66;44.04;99839.88;4227553;33;33582;-81
2024/02/05 11:03:37;;;;;;;0.00;0.00;;;;;;;15.81;44.43;99825.63;4201068;33;33455;-82
2024/02/05 11:06:07;;;;;;;0.10;0.10;;;;;;;16.22;43.25;99832.69;4213194;33;33433;-82
2024/02/05 11:08:37;;;;;;;0.10;0.10;;;;;;;16.75;42.33;99823.75;4210368;33;32259;-82
2024/02/05 11:11:12;;;;;;;0.05;0.05;;;;;;;16.59;42.84;99815.91;4217037;33;33381;-82
2024/02/05 11:13:52;;;;;;;0.00;0.00;;;;;;;16.60;42.25;99814.09;4217093;33;32536;-82
2024/02/05 11:16:21;;;;;;;0.10;0.10;;;;;;;16.95;41.67;99810.84;4210997;33;33814;-82
2024/02/05 11:18:51;;;;;;;0.00;0.00;;;;;;;16.92;41.96;99806.59;4209239;33;32646;-82
2024/02/05 11:21:51;;;;;;;0.08;0.08;;;;;;;17.10;41.63;99810.63;4234204;33;34703;-82
2024/02/05 11:24:23;;;;;;;0.00;0.00;;;;;;;16.51;42.05;99810.25;4225924;33;33174;-84
2024/02/05 11:26:55;;;;;;;0.00;0.00;;;;;;;16.65;42.12;99812.81;4205999;33;34103;-85
2024/02/05 11:29:24;;;;;;;0.00;0.00;;;;;;;16.84;41.89;99814.25;4211182;33;32354;-84
2024/02/05 11:31:54;;;;;;;0.00;0.00;;;;;;;17.00;40.97;99820.25;4201904;33;34449;-84
2024/02/05 11:34:32;;;;;;;1.00;0.37;;;;;;;16.91;40.97;99801.38;4201749;33;34277;-84
2024/02/05 11:37:10;;;;;;;0.00;0.00;;;;;;;17.17;40.44;99804.84;4223584;33;34107;-84
2024/02/05 11:39:43;;;;;;;0.00;0.00;;;;;;;17.31;39.77;99781.56;4205759;33;31247;-84
2024/02/05 11:42:11;;;;;;;0.00;0.00;;;;;;;17.01;40.93;99815.75;4200259;33;35209;-84